createdAt,value
2022-08-12T00:00:31.718Z,17.27777777777783
2022-08-12T00:02:04.400Z,17.27777777777783
2022-08-12T00:02:31.746Z,17.27777777777783
2022-08-12T00:03:31.847Z,17.27777777777783
2022-08-12T00:04:31.760Z,17.27777777777783
2022-08-12T00:05:31.699Z,17.27777777777783
2022-08-12T00:06:31.691Z,17.27777777777783
2022-08-12T00:07:31.679Z,17.388888888888914
2022-08-12T00:08:36.775Z,17.388888888888914
2022-08-12T00:09:31.692Z,17.388888888888914
2022-08-12T00:10:31.695Z,17.388888888888914
2022-08-12T00:11:31.695Z,17.388888888888914
2022-08-12T00:12:31.690Z,17.388888888888914
2022-08-12T00:13:31.963Z,17.388888888888914
2022-08-12T00:14:31.703Z,17.27777777777783
2022-08-12T00:15:31.686Z,17.388888888888914
2022-08-12T00:16:31.707Z,17.388888888888914
2022-08-12T00:17:31.735Z,17.388888888888914
2022-08-12T00:18:31.693Z,17.388888888888914
2022-08-12T00:19:31.665Z,17.27777777777783
2022-08-12T00:20:31.750Z,17.27777777777783
2022-08-12T00:21:31.691Z,17.27777777777783
2022-08-12T00:22:31.699Z,17.27777777777783
2022-08-12T00:23:31.688Z,17.27777777777783
2022-08-12T00:24:31.802Z,17.27777777777783
2022-08-12T00:26:20.072Z,17.27777777777783
2022-08-12T00:26:31.753Z,17.27777777777783
2022-08-12T00:27:43.508Z,17.27777777777783
2022-08-12T00:28:31.739Z,17.27777777777783
2022-08-12T00:29:31.698Z,17.27777777777783
2022-08-12T00:30:31.716Z,17.27777777777783
2022-08-12T00:31:31.677Z,17.27777777777783
2022-08-12T00:32:54.877Z,17.27777777777783
2022-08-12T00:33:38.647Z,17.27777777777783
2022-08-12T00:34:31.760Z,17.222222222222285
2022-08-12T00:35:36.774Z,17.222222222222285
2022-08-12T00:36:34.618Z,17.222222222222285
2022-08-12T00:37:31.681Z,17.222222222222285
2022-08-12T00:38:31.713Z,17.222222222222285
2022-08-12T00:39:31.742Z,17.222222222222285
2022-08-12T00:40:31.705Z,17.222222222222285
2022-08-12T00:41:31.720Z,17.222222222222285
2022-08-12T00:42:31.721Z,17.222222222222285
2022-08-12T00:43:31.673Z,17.111111111111143
2022-08-12T00:44:31.743Z,17.111111111111143
2022-08-12T00:45:31.708Z,17.111111111111143
2022-08-12T00:46:31.695Z,17.111111111111143
2022-08-12T00:47:31.699Z,17
2022-08-12T00:48:31.723Z,17
2022-08-12T00:49:31.736Z,17
2022-08-12T00:50:31.701Z,17
2022-08-12T00:51:31.704Z,17
2022-08-12T00:52:31.743Z,17
2022-08-12T00:53:31.711Z,17
2022-08-12T00:54:32.171Z,17
2022-08-12T00:55:31.690Z,17
2022-08-12T00:56:31.723Z,17
2022-08-12T00:57:31.698Z,17
2022-08-12T00:58:31.706Z,17
2022-08-12T00:59:31.706Z,17
2022-08-12T01:00:31.733Z,17
2022-08-12T01:02:01.049Z,17
2022-08-12T01:02:31.914Z,17
2022-08-12T01:03:31.867Z,17
2022-08-12T01:04:31.696Z,17
2022-08-12T01:05:31.706Z,17
2022-08-12T01:06:31.709Z,17
2022-08-12T01:07:31.747Z,17
2022-08-12T01:08:31.736Z,17
2022-08-12T01:09:31.726Z,17
2022-08-12T01:10:33.012Z,17
2022-08-12T01:11:31.756Z,17
2022-08-12T01:12:31.705Z,17
2022-08-12T01:13:31.704Z,17
2022-08-12T01:14:31.698Z,17
2022-08-12T01:15:31.712Z,17
2022-08-12T01:16:31.725Z,17
2022-08-12T01:17:31.764Z,16.88888888888897
2022-08-12T01:18:31.783Z,16.88888888888897
2022-08-12T01:19:31.724Z,16.88888888888897
2022-08-12T01:20:31.717Z,16.88888888888897
2022-08-12T01:21:31.730Z,16.88888888888897
2022-08-12T01:22:31.705Z,16.88888888888897
2022-08-12T01:23:31.734Z,16.88888888888897
2022-08-12T01:24:32.090Z,16.88888888888897
2022-08-12T01:25:31.689Z,16.77777777777783
2022-08-12T01:26:31.712Z,16.77777777777783
2022-08-12T01:27:31.715Z,16.77777777777783
2022-08-12T01:28:31.729Z,16.77777777777783
2022-08-12T01:29:32.873Z,16.77777777777783
2022-08-12T01:30:31.690Z,16.77777777777783
2022-08-12T01:31:31.703Z,16.77777777777783
2022-08-12T01:32:31.738Z,16.77777777777783
2022-08-12T01:33:31.741Z,16.77777777777783
2022-08-12T01:34:36.912Z,16.77777777777783
2022-08-12T01:35:31.715Z,16.72222222222223
2022-08-12T01:36:31.698Z,16.72222222222223
2022-08-12T01:37:31.694Z,16.72222222222223
2022-08-12T01:38:31.690Z,16.72222222222223
2022-08-12T01:39:31.851Z,16.72222222222223
2022-08-12T01:40:36.099Z,16.72222222222223
2022-08-12T01:41:31.909Z,16.72222222222223
2022-08-12T01:42:31.831Z,16.6111111111112
2022-08-12T01:43:31.801Z,16.6111111111112
2022-08-12T01:44:31.944Z,16.6111111111112
2022-08-12T01:45:43.190Z,16.6111111111112
2022-08-12T01:46:31.835Z,16.6111111111112
2022-08-12T01:47:31.853Z,16.6111111111112
2022-08-12T01:48:31.730Z,16.6111111111112
2022-08-12T01:49:31.715Z,16.6111111111112
2022-08-12T01:50:31.690Z,16.6111111111112
2022-08-12T01:52:15.689Z,16.6111111111112
2022-08-12T01:52:31.739Z,16.6111111111112
2022-08-12T01:53:31.697Z,16.6111111111112
2022-08-12T01:54:31.831Z,16.500000000000057
2022-08-12T01:55:31.725Z,16.500000000000057
2022-08-12T01:56:31.682Z,16.500000000000057
2022-08-12T01:57:57.152Z,16.500000000000057
2022-08-12T01:58:32.076Z,16.500000000000057
2022-08-12T01:59:31.733Z,16.500000000000057
2022-08-12T02:00:35.757Z,16.500000000000057
2022-08-12T02:01:31.777Z,16.6111111111112
2022-08-12T02:02:31.816Z,16.6111111111112
2022-08-12T02:03:31.702Z,16.6111111111112
2022-08-12T02:04:31.761Z,16.6111111111112
2022-08-12T02:05:33.284Z,16.6111111111112
2022-08-12T02:06:31.725Z,16.6111111111112
2022-08-12T02:07:31.732Z,16.6111111111112
2022-08-12T02:08:31.697Z,16.6111111111112
2022-08-12T02:09:31.706Z,16.6111111111112
2022-08-12T02:10:50.213Z,16.500000000000057
2022-08-12T02:11:31.740Z,16.500000000000057
2022-08-12T02:12:31.708Z,16.500000000000057
2022-08-12T02:13:42.094Z,16.500000000000057
2022-08-12T02:14:31.754Z,16.500000000000057
2022-08-12T02:15:31.692Z,16.6111111111112
2022-08-12T02:16:31.701Z,16.500000000000057
2022-08-12T02:17:55.093Z,16.500000000000057
2022-08-12T02:18:31.761Z,16.500000000000057
2022-08-12T02:19:31.686Z,16.500000000000057
2022-08-12T02:20:43.875Z,16.500000000000057
2022-08-12T02:21:31.828Z,16.500000000000057
2022-08-12T02:22:31.700Z,16.500000000000057
2022-08-12T02:23:31.677Z,16.500000000000057
2022-08-12T02:24:31.719Z,16.500000000000057
2022-08-12T02:25:31.694Z,16.38888888888897
2022-08-12T02:26:31.686Z,16.38888888888897
2022-08-12T02:27:31.707Z,16.500000000000057
2022-08-12T02:28:31.692Z,16.500000000000057
2022-08-12T02:29:31.708Z,16.500000000000057
2022-08-12T02:30:33.221Z,16.500000000000057
2022-08-12T02:31:31.807Z,16.38888888888897
2022-08-12T02:32:31.695Z,16.38888888888897
2022-08-12T02:33:31.688Z,16.38888888888897
2022-08-12T02:34:31.715Z,16.38888888888897
2022-08-12T02:35:31.657Z,16.38888888888897
2022-08-12T02:36:31.851Z,16.38888888888897
2022-08-12T02:37:31.708Z,16.38888888888897
2022-08-12T02:38:31.772Z,16.38888888888897
2022-08-12T02:39:31.807Z,16.38888888888897
2022-08-12T02:40:31.689Z,16.27777777777783
2022-08-12T02:41:31.692Z,16.27777777777783
2022-08-12T02:42:31.784Z,16.27777777777783
2022-08-12T02:43:31.678Z,16.27777777777783
2022-08-12T02:44:31.714Z,16.27777777777783
2022-08-12T02:45:31.689Z,16.222222222222285
2022-08-12T02:46:31.707Z,16.222222222222285
2022-08-12T02:47:58.585Z,16.222222222222285
2022-08-12T02:48:31.771Z,16.222222222222285
2022-08-12T02:49:31.712Z,16.222222222222285
2022-08-12T02:50:31.680Z,16.222222222222285
2022-08-12T02:51:31.733Z,16.222222222222285
2022-08-12T02:52:31.692Z,16.222222222222285
2022-08-12T02:53:31.678Z,16.222222222222285
2022-08-12T02:54:31.716Z,16.222222222222285
2022-08-12T02:55:34.949Z,16.222222222222285
2022-08-12T02:56:31.694Z,16.222222222222285
2022-08-12T02:57:31.716Z,16.222222222222285
2022-08-12T02:58:33.426Z,16.222222222222285
2022-08-12T02:59:31.687Z,16.222222222222285
2022-08-12T03:00:31.761Z,16.222222222222285
2022-08-12T03:01:31.851Z,16.222222222222285
2022-08-12T03:02:31.774Z,16.1111111111112
2022-08-12T03:03:31.678Z,16.1111111111112
2022-08-12T03:04:31.779Z,16.222222222222285
2022-08-12T03:05:31.678Z,16.222222222222285
2022-08-12T03:06:31.702Z,16.222222222222285
2022-08-12T03:07:56.565Z,16.222222222222285
2022-08-12T03:08:33.106Z,16.222222222222285
2022-08-12T03:09:34.113Z,16.222222222222285
2022-08-12T03:10:37.016Z,16.222222222222285
2022-08-12T03:11:31.853Z,16.222222222222285
2022-08-12T03:12:34.174Z,16.222222222222285
2022-08-12T03:13:31.880Z,16.222222222222285
2022-08-12T03:14:32.070Z,16.1111111111112
2022-08-12T03:15:31.862Z,16.1111111111112
2022-08-12T03:16:33.478Z,16.1111111111112
2022-08-12T03:17:31.855Z,16.1111111111112
2022-08-12T03:18:31.891Z,16.1111111111112
2022-08-12T03:19:31.680Z,16.1111111111112
2022-08-12T03:20:31.758Z,16.1111111111112
2022-08-12T03:21:52.799Z,16.1111111111112
2022-08-12T03:22:31.875Z,16.1111111111112
2022-08-12T03:23:31.748Z,16.1111111111112
2022-08-12T03:24:31.765Z,16.1111111111112
2022-08-12T03:25:31.720Z,16.1111111111112
2022-08-12T03:26:31.831Z,16.1111111111112
2022-08-12T03:27:31.794Z,16.1111111111112
2022-08-12T03:28:31.841Z,16.1111111111112
2022-08-12T03:29:31.701Z,16.000000000000057
2022-08-12T03:30:31.701Z,16.000000000000057
2022-08-12T03:31:31.644Z,16.000000000000057
2022-08-12T03:32:35.819Z,16.000000000000057
2022-08-12T03:33:31.689Z,16.000000000000057
2022-08-12T03:34:31.689Z,16.000000000000057
2022-08-12T03:35:41.500Z,16.000000000000057
2022-08-12T03:36:31.713Z,16.000000000000057
2022-08-12T03:37:31.733Z,16.000000000000057
2022-08-12T03:38:31.985Z,16.000000000000057
2022-08-12T03:39:36.394Z,15.888888888888914
2022-08-12T03:40:31.742Z,15.888888888888914
2022-08-12T03:41:31.785Z,15.888888888888914
2022-08-12T03:42:31.878Z,15.888888888888914
2022-08-12T03:43:31.698Z,15.888888888888914
2022-08-12T03:44:31.690Z,15.888888888888914
2022-08-12T03:45:31.666Z,15.888888888888914
2022-08-12T03:46:31.697Z,15.888888888888914
2022-08-12T03:47:31.673Z,15.888888888888914
2022-08-12T03:48:31.676Z,15.888888888888914
2022-08-12T03:49:31.690Z,15.888888888888914
2022-08-12T03:50:31.683Z,15.888888888888914
2022-08-12T03:51:31.655Z,15.888888888888914
2022-08-12T03:52:31.761Z,15.888888888888914
2022-08-12T03:53:31.721Z,16.000000000000057
2022-08-12T03:54:31.718Z,16.000000000000057
2022-08-12T03:55:31.699Z,16.000000000000057
2022-08-12T03:56:31.766Z,16.000000000000057
2022-08-12T03:57:31.698Z,16.000000000000057
2022-08-12T03:58:31.709Z,16.1111111111112
2022-08-12T03:59:31.702Z,16.1111111111112
2022-08-12T04:00:31.725Z,16.1111111111112
2022-08-12T04:01:31.861Z,16.1111111111112
2022-08-12T04:02:31.716Z,16.222222222222285
2022-08-12T04:03:31.737Z,16.222222222222285
2022-08-12T04:04:31.708Z,16.222222222222285
2022-08-12T04:05:54.687Z,16.222222222222285
2022-08-12T04:06:35.229Z,16.27777777777783
2022-08-12T04:07:31.727Z,16.27777777777783
2022-08-12T04:08:31.687Z,16.27777777777783
2022-08-12T04:09:31.688Z,16.38888888888897
2022-08-12T04:10:31.670Z,16.38888888888897
2022-08-12T04:11:32.284Z,16.38888888888897
2022-08-12T04:12:32.748Z,16.38888888888897
2022-08-12T04:13:31.714Z,16.38888888888897
2022-08-12T04:14:31.804Z,16.38888888888897
2022-08-12T04:15:31.841Z,16.38888888888897
2022-08-12T04:16:31.819Z,16.500000000000057
2022-08-12T04:17:31.705Z,16.500000000000057
2022-08-12T04:18:31.708Z,16.500000000000057
2022-08-12T04:19:31.715Z,16.500000000000057
2022-08-12T04:20:31.698Z,16.500000000000057
2022-08-12T04:21:31.760Z,16.500000000000057
2022-08-12T04:22:31.795Z,16.500000000000057
2022-08-12T04:23:31.687Z,16.500000000000057
2022-08-12T04:24:31.734Z,16.6111111111112
2022-08-12T04:25:31.707Z,16.6111111111112
2022-08-12T04:26:31.691Z,16.6111111111112
2022-08-12T04:27:32.409Z,16.72222222222223
2022-08-12T04:28:31.683Z,16.72222222222223
2022-08-12T04:30:17.221Z,16.72222222222223
2022-08-12T04:30:33.579Z,16.72222222222223
2022-08-12T04:31:31.695Z,16.72222222222223
2022-08-12T04:32:31.869Z,16.72222222222223
2022-08-12T04:33:31.736Z,16.72222222222223
2022-08-12T04:34:31.710Z,16.72222222222223
2022-08-12T04:35:31.687Z,16.72222222222223
2022-08-12T04:36:31.859Z,16.72222222222223
2022-08-12T04:37:59.266Z,16.72222222222223
2022-08-12T04:38:31.735Z,16.72222222222223
2022-08-12T04:39:31.812Z,16.77777777777783
2022-08-12T04:40:31.725Z,16.77777777777783
2022-08-12T04:41:31.720Z,16.77777777777783
2022-08-12T04:42:31.835Z,16.77777777777783
2022-08-12T04:43:55.288Z,16.77777777777783
2022-08-12T04:44:31.806Z,16.88888888888897
2022-08-12T04:45:31.808Z,16.88888888888897
2022-08-12T04:46:34.463Z,16.88888888888897
2022-08-12T04:47:31.702Z,16.88888888888897
2022-08-12T04:48:31.678Z,16.88888888888897
2022-08-12T04:49:31.713Z,17
2022-08-12T04:50:35.950Z,17
2022-08-12T04:51:31.777Z,17
2022-08-12T04:52:34.833Z,17
2022-08-12T04:53:31.678Z,17
2022-08-12T04:54:31.992Z,17
2022-08-12T04:55:31.696Z,17.111111111111143
2022-08-12T04:56:35.216Z,17.111111111111143
2022-08-12T04:57:31.689Z,17.111111111111143
2022-08-12T04:58:31.688Z,17.111111111111143
2022-08-12T04:59:31.732Z,17.111111111111143
2022-08-12T05:00:31.711Z,17.222222222222285
2022-08-12T05:01:31.710Z,17.222222222222285
2022-08-12T05:02:31.726Z,17.222222222222285
2022-08-12T05:03:46.781Z,17.222222222222285
2022-08-12T05:04:31.749Z,17.222222222222285
2022-08-12T05:05:35.918Z,17.222222222222285
2022-08-12T05:06:31.675Z,17.222222222222285
2022-08-12T05:07:31.668Z,17.27777777777783
2022-08-12T05:08:31.678Z,17.27777777777783
2022-08-12T05:10:00.463Z,17.27777777777783
2022-08-12T05:10:34.000Z,17.27777777777783
2022-08-12T05:11:31.780Z,17.388888888888914
2022-08-12T05:12:33.180Z,17.388888888888914
2022-08-12T05:13:31.686Z,17.388888888888914
2022-08-12T05:14:37.007Z,17.388888888888914
2022-08-12T05:15:31.675Z,17.388888888888914
2022-08-12T05:16:34.068Z,17.500000000000057
2022-08-12T05:17:31.662Z,17.500000000000057
2022-08-12T05:18:31.758Z,17.611111111111143
2022-08-12T05:19:31.752Z,17.611111111111143
2022-08-12T05:20:31.697Z,17.722222222222285
2022-08-12T05:21:31.664Z,17.888888888888914
2022-08-12T05:22:31.676Z,18.111111111111143
2022-08-12T05:23:31.694Z,18.388888888888914
2022-08-12T05:24:31.735Z,18.6111111111112
2022-08-12T05:25:31.681Z,18.722222222222285
2022-08-12T05:26:31.704Z,18.88888888888897
2022-08-12T05:27:31.686Z,19.27777777777783
2022-08-12T05:28:31.698Z,19.38888888888897
2022-08-12T05:30:06.535Z,19.5
2022-08-12T05:30:31.758Z,19.5
2022-08-12T05:31:42.092Z,19.611111111111143
2022-08-12T05:32:31.766Z,19.77777777777783
2022-08-12T05:33:31.789Z,19.77777777777783
2022-08-12T05:34:31.695Z,19.888888888888914
2022-08-12T05:35:31.654Z,20.000000000000057
2022-08-12T05:36:31.695Z,20.111111111111143
2022-08-12T05:37:31.674Z,20.27777777777783
2022-08-12T05:38:31.695Z,20.388888888888914
2022-08-12T05:39:31.706Z,20.388888888888914
2022-08-12T05:40:31.696Z,20.611111111111143
2022-08-12T05:41:31.694Z,20.611111111111143
2022-08-12T05:42:34.348Z,20.77777777777783
2022-08-12T05:43:31.695Z,21.000000000000057
2022-08-12T05:44:31.684Z,21.1111111111112
2022-08-12T05:45:31.682Z,21.1111111111112
2022-08-12T05:46:31.669Z,21.1111111111112
2022-08-12T05:47:44.775Z,21.1111111111112
2022-08-12T05:48:31.753Z,21.000000000000057
2022-08-12T05:49:31.687Z,21.000000000000057
2022-08-12T05:50:31.693Z,21.000000000000057
2022-08-12T05:51:38.611Z,20.888888888888914
2022-08-12T05:52:31.661Z,21.000000000000057
2022-08-12T05:53:31.837Z,20.888888888888914
2022-08-12T05:54:54.736Z,20.77777777777783
2022-08-12T05:55:31.778Z,20.722222222222285
2022-08-12T05:56:31.696Z,20.77777777777783
2022-08-12T05:57:31.677Z,20.888888888888914
2022-08-12T05:58:31.670Z,20.888888888888914
2022-08-12T05:59:31.666Z,20.888888888888914
2022-08-12T06:00:31.733Z,20.888888888888914
2022-08-12T06:02:10.685Z,20.722222222222285
2022-08-12T06:02:31.789Z,20.722222222222285
2022-08-12T06:03:31.774Z,20.722222222222285
2022-08-12T06:04:31.771Z,20.888888888888914
2022-08-12T06:05:31.697Z,21.000000000000057
2022-08-12T06:06:31.739Z,21.1111111111112
2022-08-12T06:07:37.254Z,21.1111111111112
2022-08-12T06:08:31.715Z,21.1111111111112
2022-08-12T06:09:31.670Z,21.1111111111112
2022-08-12T06:10:33.061Z,21.222222222222285
2022-08-12T06:11:31.668Z,21.27777777777783
2022-08-12T06:12:31.695Z,21.27777777777783
2022-08-12T06:13:53.680Z,21.27777777777783
2022-08-12T06:14:31.724Z,21.27777777777783
2022-08-12T06:15:31.746Z,21.38888888888897
2022-08-12T06:16:31.801Z,21.500000000000057
2022-08-12T06:17:31.790Z,21.72222222222223
2022-08-12T06:18:31.700Z,21.72222222222223
2022-08-12T06:20:26.905Z,21.72222222222223
2022-08-12T06:20:34.354Z,21.72222222222223
2022-08-12T06:21:31.797Z,21.77777777777783
2022-08-12T06:22:31.684Z,22
2022-08-12T06:23:31.678Z,22
2022-08-12T06:24:31.678Z,21.72222222222223
2022-08-12T06:25:31.667Z,21.38888888888897
2022-08-12T06:26:31.711Z,21.27777777777783
2022-08-12T06:27:31.682Z,21.27777777777783
2022-08-12T06:28:31.731Z,21.27777777777783
2022-08-12T06:30:09.765Z,21.1111111111112
2022-08-12T06:30:38.046Z,21.1111111111112
2022-08-12T06:31:31.637Z,21.222222222222285
2022-08-12T06:32:31.700Z,21.27777777777783
2022-08-12T06:33:55.653Z,21.38888888888897
2022-08-12T06:35:23.166Z,21.38888888888897
2022-08-12T06:35:47.060Z,21.500000000000057
2022-08-12T06:36:32.689Z,21.500000000000057
2022-08-12T06:37:31.713Z,21.500000000000057
2022-08-12T06:38:31.691Z,21.500000000000057
2022-08-12T06:39:31.878Z,21.27777777777783
2022-08-12T06:40:31.692Z,21.1111111111112
2022-08-12T06:41:31.700Z,21.000000000000057
2022-08-12T06:42:33.475Z,20.888888888888914
2022-08-12T06:44:06.336Z,20.77777777777783
2022-08-12T06:44:31.743Z,20.77777777777783
2022-08-12T06:45:31.681Z,20.77777777777783
2022-08-12T06:46:31.684Z,20.77777777777783
2022-08-12T06:47:31.676Z,20.77777777777783
2022-08-12T06:48:31.676Z,20.77777777777783
2022-08-12T06:49:31.677Z,20.77777777777783
2022-08-12T06:50:31.693Z,20.77777777777783
2022-08-12T06:51:31.645Z,20.888888888888914
2022-08-12T06:52:31.800Z,20.888888888888914
2022-08-12T06:53:31.703Z,20.888888888888914
2022-08-12T06:54:32.368Z,20.888888888888914
2022-08-12T06:55:31.860Z,20.888888888888914
2022-08-12T06:56:59.724Z,20.888888888888914
2022-08-12T06:58:03.656Z,21.000000000000057
2022-08-12T06:58:31.727Z,21.000000000000057
2022-08-12T06:59:31.724Z,21.000000000000057
2022-08-12T07:00:32.409Z,21.000000000000057
2022-08-12T07:01:31.751Z,21.000000000000057
2022-08-12T07:02:36.322Z,21.000000000000057
2022-08-12T07:03:31.663Z,21.000000000000057
2022-08-12T07:04:37.755Z,21.1111111111112
2022-08-12T07:05:31.713Z,21.222222222222285
2022-08-12T07:06:31.672Z,21.222222222222285
2022-08-12T07:07:31.672Z,21.27777777777783
2022-08-12T07:08:31.693Z,21.500000000000057
2022-08-12T07:10:04.539Z,21.500000000000057
2022-08-12T07:10:31.749Z,21.6111111111112
2022-08-12T07:11:31.667Z,21.6111111111112
2022-08-12T07:12:31.821Z,21.72222222222223
2022-08-12T07:13:31.810Z,21.72222222222223
2022-08-12T07:14:31.773Z,21.72222222222223
2022-08-12T07:15:31.666Z,21.77777777777783
2022-08-12T07:16:31.665Z,21.77777777777783
2022-08-12T07:17:31.669Z,21.77777777777783
2022-08-12T07:18:31.675Z,21.77777777777783
2022-08-12T07:19:40.504Z,21.77777777777783
2022-08-12T07:20:51.696Z,21.77777777777783
2022-08-12T07:21:59.477Z,21.88888888888897
2022-08-12T07:22:31.799Z,22
2022-08-12T07:23:31.640Z,22.111111111111143
2022-08-12T07:24:31.965Z,22.111111111111143
2022-08-12T07:25:37.870Z,22.111111111111143
2022-08-12T07:26:31.939Z,22.111111111111143
2022-08-12T07:27:31.680Z,22.111111111111143
2022-08-12T07:28:31.718Z,22.111111111111143
2022-08-12T07:29:57.791Z,22.222222222222285
2022-08-12T07:30:31.740Z,22.388888888888914
2022-08-12T07:31:31.672Z,22.722222222222285
2022-08-12T07:32:31.743Z,22.888888888888914
2022-08-12T07:33:31.695Z,23.000000000000057
2022-08-12T07:34:31.712Z,23.000000000000057
2022-08-12T07:35:31.660Z,23.222222222222285
2022-08-12T07:36:31.677Z,23.27777777777783
2022-08-12T07:37:31.705Z,23.388888888888914
2022-08-12T07:38:31.680Z,23.6111111111112
2022-08-12T07:39:31.722Z,23.722222222222285
2022-08-12T07:40:31.672Z,23.77777777777783
2022-08-12T07:41:31.683Z,23.88888888888897
2022-08-12T07:42:31.730Z,24.000000000000057
2022-08-12T07:43:31.665Z,24.1111111111112
2022-08-12T07:44:31.689Z,24.1111111111112
2022-08-12T07:45:31.670Z,24.1111111111112
2022-08-12T07:46:31.670Z,24.22222222222223
2022-08-12T07:47:31.707Z,24.27777777777783
2022-08-12T07:48:31.701Z,24.5
2022-08-12T07:49:31.697Z,24.611111111111143
2022-08-12T07:50:31.788Z,24.722222222222285
2022-08-12T07:51:31.690Z,24.77777777777783
2022-08-12T07:52:31.729Z,24.77777777777783
2022-08-12T07:53:31.712Z,24.611111111111143
2022-08-12T07:54:31.703Z,24.38888888888897
2022-08-12T07:55:31.707Z,24.38888888888897
2022-08-12T07:56:31.765Z,24.38888888888897
2022-08-12T07:57:31.633Z,24.27777777777783
2022-08-12T07:58:31.659Z,24.38888888888897
2022-08-12T07:59:32.051Z,24.38888888888897
2022-08-12T08:00:31.739Z,24.38888888888897
2022-08-12T08:01:31.764Z,24.38888888888897
2022-08-12T08:02:31.750Z,24.5
2022-08-12T08:03:31.672Z,24.611111111111143
2022-08-12T08:04:31.670Z,24.611111111111143
2022-08-12T08:05:31.712Z,24.5
2022-08-12T08:06:31.679Z,24.5
2022-08-12T08:07:31.727Z,24.611111111111143
2022-08-12T08:08:31.678Z,24.722222222222285
2022-08-12T08:09:31.681Z,24.77777777777783
2022-08-12T08:10:31.712Z,24.77777777777783
2022-08-12T08:11:31.650Z,24.611111111111143
2022-08-12T08:12:31.709Z,24.38888888888897
2022-08-12T08:13:31.638Z,24.38888888888897
2022-08-12T08:14:31.715Z,24.38888888888897
2022-08-12T08:16:00.622Z,24.611111111111143
2022-08-12T08:16:31.709Z,24.722222222222285
2022-08-12T08:17:31.680Z,24.77777777777783
2022-08-12T08:18:31.829Z,24.77777777777783
2022-08-12T08:19:31.661Z,24.888888888888914
2022-08-12T08:20:31.693Z,24.77777777777783
2022-08-12T08:21:31.669Z,24.5
2022-08-12T08:22:41.341Z,24.5
2022-08-12T08:23:35.245Z,24.611111111111143
2022-08-12T08:24:31.798Z,24.611111111111143
2022-08-12T08:25:36.828Z,24.38888888888897
2022-08-12T08:26:31.717Z,24.38888888888897
2022-08-12T08:27:31.665Z,24.611111111111143
2022-08-12T08:28:31.686Z,24.77777777777783
2022-08-12T08:29:31.849Z,24.888888888888914
2022-08-12T08:30:31.749Z,24.611111111111143
2022-08-12T08:31:31.644Z,24.5
2022-08-12T08:32:31.813Z,24.38888888888897
2022-08-12T08:34:01.407Z,24.611111111111143
2022-08-12T08:34:52.886Z,24.888888888888914
2022-08-12T08:35:45.452Z,25.000000000000057
2022-08-12T08:36:31.708Z,25.000000000000057
2022-08-12T08:37:33.354Z,25.000000000000057
2022-08-12T08:38:34.878Z,25.000000000000057
2022-08-12T08:39:31.696Z,25.111111111111143
2022-08-12T08:40:31.688Z,25.27777777777783
2022-08-12T08:42:16.031Z,25.611111111111143
2022-08-12T08:42:31.743Z,25.722222222222285
2022-08-12T08:43:44.080Z,26.000000000000057
2022-08-12T08:44:31.641Z,26.1111111111112
2022-08-12T08:45:31.670Z,26.1111111111112
2022-08-12T08:46:31.674Z,26.1111111111112
2022-08-12T08:47:31.641Z,26.000000000000057
2022-08-12T08:48:31.645Z,25.611111111111143
2022-08-12T08:49:31.796Z,25.611111111111143
2022-08-12T08:50:32.013Z,25.611111111111143
2022-08-12T08:51:31.649Z,25.611111111111143
2022-08-12T08:52:35.308Z,25.500000000000057
2022-08-12T08:53:32.410Z,25.500000000000057
2022-08-12T08:54:31.704Z,25.388888888888914
2022-08-12T08:56:01.348Z,25.27777777777783
2022-08-12T08:56:31.725Z,24.888888888888914
2022-08-12T08:57:42.812Z,24.888888888888914
2022-08-12T08:58:31.668Z,25.111111111111143
2022-08-12T08:59:31.663Z,25.611111111111143
2022-08-12T09:00:31.797Z,25.722222222222285
2022-08-12T09:01:31.674Z,25.77777777777783
2022-08-12T09:02:31.774Z,26.000000000000057
2022-08-12T09:05:13.341Z,26.000000000000057
2022-08-12T09:06:01.686Z,25.722222222222285
2022-08-12T09:06:37.786Z,25.722222222222285
2022-08-12T09:07:51.002Z,25.77777777777783
2022-08-12T09:08:31.729Z,25.77777777777783
2022-08-12T09:10:01.536Z,25.77777777777783
2022-08-12T09:10:32.710Z,25.77777777777783
2022-08-12T09:12:06.517Z,25.77777777777783
2022-08-12T09:12:31.736Z,25.888888888888914
2022-08-12T09:14:11.990Z,26.000000000000057
2022-08-12T09:14:31.722Z,26.000000000000057
2022-08-12T09:15:34.986Z,25.77777777777783
2022-08-12T09:16:31.703Z,25.722222222222285
2022-08-12T09:17:42.841Z,25.611111111111143
2022-08-12T09:18:33.535Z,25.611111111111143
2022-08-12T09:19:31.653Z,25.611111111111143
2022-08-12T09:20:31.710Z,25.611111111111143
2022-08-12T09:21:54.792Z,25.500000000000057
2022-08-12T09:22:31.716Z,25.500000000000057
2022-08-12T09:23:59.028Z,25.722222222222285
2022-08-12T09:24:31.897Z,25.77777777777783
2022-08-12T09:25:33.385Z,25.77777777777783
2022-08-12T09:26:31.679Z,25.77777777777783
2022-08-12T09:28:03.427Z,25.77777777777783
2022-08-12T09:28:32.092Z,25.888888888888914
2022-08-12T09:30:10.970Z,26.000000000000057